sensor_id;sensor_type;location;lat;lon;timestamp;P1;durP1;ratioP1;P2;durP2;ratioP2
23230;SDS011;11784;49.818;8.632;2024-03-08T00:02:03;18.42;;;9.95;;
23230;SDS011;11784;49.818;8.632;2024-03-08T00:04:29;17.55;;;9.68;;
23230;SDS011;11784;49.818;8.632;2024-03-08T00:06:55;16.17;;;9.02;;
23230;SDS011;11784;49.818;8.632;2024-03-08T00:09:21;18.95;;;10.32;;
23230;SDS011;11784;49.818;8.632;2024-03-08T00:11:47;20.45;;;9.82;;
23230;SDS011;11784;49.818;8.632;2024-03-08T00:14:15;17.65;;;9.45;;
23230;SDS011;11784;49.818;8.632;2024-03-08T00:16:41;16.20;;;9.52;;
23230;SDS011;11784;49.818;8.632;2024-03-08T00:19:08;16.85;;;9.45;;
23230;SDS011;11784;49.818;8.632;2024-03-08T00:21:34;17.33;;;9.95;;
23230;SDS011;11784;49.818;8.632;2024-03-08T00:24:00;18.45;;;9.63;;
23230;SDS011;11784;49.818;8.632;2024-03-08T00:26:26;15.85;;;8.90;;
23230;SDS011;11784;49.818;8.632;2024-03-08T00:28:53;16.02;;;9.75;;
23230;SDS011;11784;49.818;8.632;2024-03-08T00:31:19;16.70;;;9.43;;
23230;SDS011;11784;49.818;8.632;2024-03-08T00:33:45;17.33;;;10.02;;
23230;SDS011;11784;49.818;8.632;2024-03-08T00:36:11;16.38;;;9.50;;
23230;SDS011;11784;49.818;8.632;2024-03-08T00:38:37;22.70;;;10.27;;
23230;SDS011;11784;49.818;8.632;2024-03-08T00:41:03;16.00;;;9.75;;
23230;SDS011;11784;49.818;8.632;2024-03-08T00:43:29;17.25;;;9.88;;
23230;SDS011;11784;49.818;8.632;2024-03-08T00:45:55;17.02;;;9.20;;
23230;SDS011;11784;49.818;8.632;2024-03-08T00:48:22;18.58;;;10.20;;
23230;SDS011;11784;49.818;8.632;2024-03-08T00:50:48;17.02;;;9.10;;
23230;SDS011;11784;49.818;8.632;2024-03-08T00:53:14;17.15;;;9.02;;
23230;SDS011;11784;49.818;8.632;2024-03-08T00:55:40;20.30;;;9.98;;
23230;SDS011;11784;49.818;8.632;2024-03-08T00:58:06;17.27;;;10.02;;
23230;SDS011;11784;49.818;8.632;2024-03-08T01:00:34;18.52;;;9.65;;
23230;SDS011;11784;49.818;8.632;2024-03-08T01:03:00;19.10;;;9.20;;
23230;SDS011;11784;49.818;8.632;2024-03-08T01:05:26;19.13;;;9.48;;
23230;SDS011;11784;49.818;8.632;2024-03-08T01:07:52;17.23;;;9.13;;
23230;SDS011;11784;49.818;8.632;2024-03-08T01:10:18;17.77;;;8.98;;
23230;SDS011;11784;49.818;8.632;2024-03-08T01:12:44;15.40;;;9.43;;
23230;SDS011;11784;49.818;8.632;2024-03-08T01:15:10;20.02;;;9.13;;
23230;SDS011;11784;49.818;8.632;2024-03-08T01:17:36;20.73;;;9.82;;
23230;SDS011;11784;49.818;8.632;2024-03-08T01:20:03;15.80;;;9.43;;
23230;SDS011;11784;49.818;8.632;2024-03-08T01:22:29;16.52;;;9.18;;
23230;SDS011;11784;49.818;8.632;2024-03-08T01:24:55;16.30;;;9.20;;
23230;SDS011;11784;49.818;8.632;2024-03-08T01:27:21;19.42;;;10.05;;
23230;SDS011;11784;49.818;8.632;2024-03-08T01:29:47;17.67;;;9.32;;
23230;SDS011;11784;49.818;8.632;2024-03-08T01:32:13;20.20;;;9.73;;
23230;SDS011;11784;49.818;8.632;2024-03-08T01:34:40;16.73;;;9.32;;
23230;SDS011;11784;49.818;8.632;2024-03-08T01:37:06;14.73;;;8.27;;
23230;SDS011;11784;49.818;8.632;2024-03-08T01:39:32;16.58;;;9.02;;
23230;SDS011;11784;49.818;8.632;2024-03-08T01:41:58;19.23;;;9.68;;
23230;SDS011;11784;49.818;8.632;2024-03-08T01:44:24;17.27;;;9.98;;
23230;SDS011;11784;49.818;8.632;2024-03-08T01:46:50;18.35;;;9.23;;
23230;SDS011;11784;49.818;8.632;2024-03-08T01:49:18;18.38;;;9.30;;
23230;SDS011;11784;49.818;8.632;2024-03-08T01:51:45;20.88;;;9.23;;
23230;SDS011;11784;49.818;8.632;2024-03-08T01:54:12;17.02;;;9.38;;
23230;SDS011;11784;49.818;8.632;2024-03-08T01:56:40;19.30;;;9.95;;
23230;SDS011;11784;49.818;8.632;2024-03-08T01:59:06;19.38;;;9.57;;
23230;SDS011;11784;49.818;8.632;2024-03-08T02:01:32;18.20;;;9.70;;
23230;SDS011;11784;49.818;8.632;2024-03-08T02:03:59;23.33;;;10.27;;
23230;SDS011;11784;49.818;8.632;2024-03-08T02:06:25;21.52;;;10.00;;
23230;SDS011;11784;49.818;8.632;2024-03-08T02:08:51;16.52;;;9.48;;
23230;SDS011;11784;49.818;8.632;2024-03-08T02:11:17;19.88;;;9.63;;
23230;SDS011;11784;49.818;8.632;2024-03-08T02:13:45;22.17;;;10.07;;
23230;SDS011;11784;49.818;8.632;2024-03-08T02:16:11;17.92;;;10.15;;
23230;SDS011;11784;49.818;8.632;2024-03-08T02:18:37;18.02;;;9.35;;
23230;SDS011;11784;49.818;8.632;2024-03-08T02:21:04;20.13;;;10.60;;
23230;SDS011;11784;49.818;8.632;2024-03-08T02:23:30;17.42;;;10.00;;
23230;SDS011;11784;49.818;8.632;2024-03-08T02:25:57;16.58;;;9.57;;
23230;SDS011;11784;49.818;8.632;2024-03-08T02:28:23;18.70;;;9.35;;
23230;SDS011;11784;49.818;8.632;2024-03-08T02:30:53;18.40;;;10.38;;
23230;SDS011;11784;49.818;8.632;2024-03-08T02:33:20;20.15;;;10.20;;
23230;SDS011;11784;49.818;8.632;2024-03-08T02:35:47;16.80;;;9.25;;
23230;SDS011;11784;49.818;8.632;2024-03-08T02:38:13;18.67;;;9.77;;
23230;SDS011;11784;49.818;8.632;2024-03-08T02:40:41;19.42;;;10.05;;
23230;SDS011;11784;49.818;8.632;2024-03-08T02:43:07;18.33;;;9.63;;
23230;SDS011;11784;49.818;8.632;2024-03-08T02:45:33;17.85;;;9.82;;
23230;SDS011;11784;49.818;8.632;2024-03-08T02:48:00;20.85;;;9.52;;
23230;SDS011;11784;49.818;8.632;2024-03-08T02:50:25;17.98;;;9.95;;
23230;SDS011;11784;49.818;8.632;2024-03-08T02:52:51;18.98;;;9.20;;
23230;SDS011;11784;49.818;8.632;2024-03-08T02:55:17;17.27;;;9.32;;
23230;SDS011;11784;49.818;8.632;2024-03-08T02:57:44;18.85;;;9.02;;
23230;SDS011;11784;49.818;8.632;2024-03-08T03:00:12;17.92;;;9.98;;
23230;SDS011;11784;49.818;8.632;2024-03-08T03:02:38;19.23;;;9.70;;
23230;SDS011;11784;49.818;8.632;2024-03-08T03:05:05;18.08;;;9.15;;
23230;SDS011;11784;49.818;8.632;2024-03-08T03:07:34;17.40;;;9.65;;
23230;SDS011;11784;49.818;8.632;2024-03-08T03:10:00;16.40;;;9.40;;
23230;SDS011;11784;49.818;8.632;2024-03-08T03:12:27;18.38;;;10.18;;
23230;SDS011;11784;49.818;8.632;2024-03-08T03:14:53;21.13;;;10.43;;
23230;SDS011;11784;49.818;8.632;2024-03-08T03:17:19;21.95;;;10.38;;
23230;SDS011;11784;49.818;8.632;2024-03-08T03:19:45;18.60;;;10.10;;
23230;SDS011;11784;49.818;8.632;2024-03-08T03:22:14;19.33;;;10.70;;
23230;SDS011;11784;49.818;8.632;2024-03-08T03:24:40;18.42;;;10.20;;
23230;SDS011;11784;49.818;8.632;2024-03-08T03:27:07;22.77;;;11.25;;
23230;SDS011;11784;49.818;8.632;2024-03-08T03:29:39;24.90;;;11.15;;
23230;SDS011;11784;49.818;8.632;2024-03-08T03:32:07;21.65;;;10.55;;
23230;SDS011;11784;49.818;8.632;2024-03-08T03:34:33;18.92;;;10.10;;
23230;SDS011;11784;49.818;8.632;2024-03-08T03:37:02;20.55;;;9.75;;
23230;SDS011;11784;49.818;8.632;2024-03-08T03:39:29;21.70;;;10.32;;
23230;SDS011;11784;49.818;8.632;2024-03-08T03:41:57;19.05;;;10.38;;
23230;SDS011;11784;49.818;8.632;2024-03-08T03:44:23;22.08;;;10.65;;
23230;SDS011;11784;49.818;8.632;2024-03-08T03:46:49;19.55;;;9.35;;
23230;SDS011;11784;49.818;8.632;2024-03-08T03:49:15;19.80;;;10.07;;
23230;SDS011;11784;49.818;8.632;2024-03-08T03:51:42;19.60;;;10.18;;
23230;SDS011;11784;49.818;8.632;2024-03-08T03:54:09;23.05;;;10.63;;
23230;SDS011;11784;49.818;8.632;2024-03-08T03:56:35;19.05;;;10.10;;
23230;SDS011;11784;49.818;8.632;2024-03-08T03:59:01;19.58;;;10.38;;
23230;SDS011;11784;49.818;8.632;2024-03-08T04:01:27;18.90;;;9.95;;
23230;SDS011;11784;49.818;8.632;2024-03-08T04:03:54;18.98;;;9.73;;
23230;SDS011;11784;49.818;8.632;2024-03-08T04:06:20;20.80;;;9.90;;
23230;SDS011;11784;49.818;8.632;2024-03-08T04:08:47;20.25;;;10.48;;
23230;SDS011;11784;49.818;8.632;2024-03-08T04:11:13;17.52;;;9.80;;
23230;SDS011;11784;49.818;8.632;2024-03-08T04:13:41;19.90;;;9.60;;
23230;SDS011;11784;49.818;8.632;2024-03-08T04:16:07;19.33;;;9.70;;
23230;SDS011;11784;49.818;8.632;2024-03-08T04:18:34;18.58;;;10.38;;
23230;SDS011;11784;49.818;8.632;2024-03-08T04:21:04;17.88;;;10.10;;
23230;SDS011;11784;49.818;8.632;2024-03-08T04:23:31;25.42;;;11.10;;
23230;SDS011;11784;49.818;8.632;2024-03-08T04:25:57;20.35;;;9.38;;
23230;SDS011;11784;49.818;8.632;2024-03-08T04:28:23;17.92;;;9.65;;
23230;SDS011;11784;49.818;8.632;2024-03-08T04:30:51;18.63;;;9.95;;
23230;SDS011;11784;49.818;8.632;2024-03-08T04:33:17;18.50;;;9.70;;
23230;SDS011;11784;49.818;8.632;2024-03-08T04:35:43;19.45;;;9.77;;
23230;SDS011;11784;49.818;8.632;2024-03-08T04:38:11;22.60;;;10.68;;
23230;SDS011;11784;49.818;8.632;2024-03-08T04:40:36;18.48;;;10.20;;
23230;SDS011;11784;49.818;8.632;2024-03-08T04:43:02;19.35;;;10.45;;
23230;SDS011;11784;49.818;8.632;2024-03-08T04:45:28;20.60;;;9.48;;
23230;SDS011;11784;49.818;8.632;2024-03-08T04:47:54;20.67;;;9.98;;
23230;SDS011;11784;49.818;8.632;2024-03-08T04:50:21;18.15;;;10.15;;
23230;SDS011;11784;49.818;8.632;2024-03-08T04:52:48;18.75;;;10.20;;
23230;SDS011;11784;49.818;8.632;2024-03-08T04:55:14;23.45;;;10.75;;
23230;SDS011;11784;49.818;8.632;2024-03-08T04:57:40;18.13;;;10.18;;
23230;SDS011;11784;49.818;8.632;2024-03-08T05:00:09;19.55;;;9.85;;
23230;SDS011;11784;49.818;8.632;2024-03-08T05:02:39;21.75;;;11.50;;
23230;SDS011;11784;49.818;8.632;2024-03-08T05:05:06;20.60;;;9.90;;
23230;SDS011;11784;49.818;8.632;2024-03-08T05:07:32;20.98;;;10.68;;
23230;SDS011;11784;49.818;8.632;2024-03-08T05:09:58;21.38;;;10.75;;
23230;SDS011;11784;49.818;8.632;2024-03-08T05:12:24;19.20;;;10.18;;
23230;SDS011;11784;49.818;8.632;2024-03-08T05:14:50;20.60;;;9.95;;
23230;SDS011;11784;49.818;8.632;2024-03-08T05:17:16;19.75;;;11.07;;
23230;SDS011;11784;49.818;8.632;2024-03-08T05:19:42;20.77;;;9.75;;
23230;SDS011;11784;49.818;8.632;2024-03-08T05:22:10;21.42;;;10.70;;
23230;SDS011;11784;49.818;8.632;2024-03-08T05:24:36;19.17;;;10.13;;
23230;SDS011;11784;49.818;8.632;2024-03-08T05:27:02;22.40;;;10.15;;
23230;SDS011;11784;49.818;8.632;2024-03-08T05:29:28;20.00;;;11.38;;
23230;SDS011;11784;49.818;8.632;2024-03-08T05:31:55;22.10;;;10.35;;
23230;SDS011;11784;49.818;8.632;2024-03-08T05:34:22;20.63;;;10.23;;
23230;SDS011;11784;49.818;8.632;2024-03-08T05:36:49;19.80;;;9.63;;
23230;SDS011;11784;49.818;8.632;2024-03-08T05:39:16;18.05;;;9.70;;
23230;SDS011;11784;49.818;8.632;2024-03-08T05:41:42;20.95;;;10.85;;
23230;SDS011;11784;49.818;8.632;2024-03-08T05:44:08;21.67;;;11.68;;
23230;SDS011;11784;49.818;8.632;2024-03-08T05:46:35;22.23;;;11.13;;
23230;SDS011;11784;49.818;8.632;2024-03-08T05:49:01;22.15;;;11.00;;
23230;SDS011;11784;49.818;8.632;2024-03-08T05:51:33;24.45;;;11.98;;
23230;SDS011;11784;49.818;8.632;2024-03-08T05:54:09;22.00;;;10.88;;
23230;SDS011;11784;49.818;8.632;2024-03-08T05:56:35;24.80;;;11.48;;
23230;SDS011;11784;49.818;8.632;2024-03-08T05:59:01;20.48;;;11.23;;
23230;SDS011;11784;49.818;8.632;2024-03-08T06:01:28;23.60;;;11.27;;
23230;SDS011;11784;49.818;8.632;2024-03-08T06:03:54;20.30;;;11.30;;
23230;SDS011;11784;49.818;8.632;2024-03-08T06:08:51;22.52;;;11.15;;
23230;SDS011;11784;49.818;8.632;2024-03-08T06:11:17;20.70;;;10.73;;
23230;SDS011;11784;49.818;8.632;2024-03-08T06:13:44;26.02;;;11.52;;
23230;SDS011;11784;49.818;8.632;2024-03-08T06:16:10;27.98;;;12.07;;
23230;SDS011;11784;49.818;8.632;2024-03-08T06:18:37;26.58;;;12.65;;
23230;SDS011;11784;49.818;8.632;2024-03-08T06:21:06;26.33;;;11.82;;
23230;SDS011;11784;49.818;8.632;2024-03-08T06:23:39;24.88;;;11.50;;
23230;SDS011;11784;49.818;8.632;2024-03-08T06:26:05;26.20;;;11.75;;
23230;SDS011;11784;49.818;8.632;2024-03-08T06:28:32;23.40;;;10.82;;
23230;SDS011;11784;49.818;8.632;2024-03-08T06:30:59;21.35;;;11.38;;
23230;SDS011;11784;49.818;8.632;2024-03-08T06:33:25;23.35;;;11.38;;
23230;SDS011;11784;49.818;8.632;2024-03-08T06:35:51;21.90;;;10.90;;
23230;SDS011;11784;49.818;8.632;2024-03-08T06:38:17;20.77;;;11.68;;
23230;SDS011;11784;49.818;8.632;2024-03-08T06:40:44;21.77;;;10.50;;
23230;SDS011;11784;49.818;8.632;2024-03-08T06:43:13;21.05;;;11.32;;
23230;SDS011;11784;49.818;8.632;2024-03-08T06:45:41;18.05;;;10.18;;
23230;SDS011;11784;49.818;8.632;2024-03-08T06:48:06;20.70;;;11.02;;
23230;SDS011;11784;49.818;8.632;2024-03-08T06:50:34;25.58;;;11.57;;
23230;SDS011;11784;49.818;8.632;2024-03-08T06:53:01;24.95;;;11.80;;
23230;SDS011;11784;49.818;8.632;2024-03-08T06:55:28;21.13;;;10.23;;
23230;SDS011;11784;49.818;8.632;2024-03-08T06:57:54;23.55;;;11.73;;
23230;SDS011;11784;49.818;8.632;2024-03-08T07:00:20;23.50;;;11.82;;
23230;SDS011;11784;49.818;8.632;2024-03-08T07:02:51;19.42;;;11.48;;
23230;SDS011;11784;49.818;8.632;2024-03-08T07:05:18;23.70;;;12.10;;
23230;SDS011;11784;49.818;8.632;2024-03-08T07:07:44;25.08;;;11.73;;
23230;SDS011;11784;49.818;8.632;2024-03-08T07:10:13;22.45;;;11.35;;
23230;SDS011;11784;49.818;8.632;2024-03-08T07:12:40;23.15;;;12.10;;
23230;SDS011;11784;49.818;8.632;2024-03-08T07:15:06;24.30;;;11.98;;
23230;SDS011;11784;49.818;8.632;2024-03-08T07:17:32;22.00;;;11.85;;
23230;SDS011;11784;49.818;8.632;2024-03-08T07:20:00;21.52;;;11.45;;
23230;SDS011;11784;49.818;8.632;2024-03-08T07:22:32;23.60;;;11.57;;
23230;SDS011;11784;49.818;8.632;2024-03-08T07:24:58;26.10;;;11.65;;
23230;SDS011;11784;49.818;8.632;2024-03-08T07:27:44;25.08;;;11.07;;
23230;SDS011;11784;49.818;8.632;2024-03-08T07:30:11;21.75;;;11.05;;
23230;SDS011;11784;49.818;8.632;2024-03-08T07:32:37;20.63;;;10.25;;
23230;SDS011;11784;49.818;8.632;2024-03-08T07:35:03;22.45;;;11.10;;
23230;SDS011;11784;49.818;8.632;2024-03-08T07:37:29;19.25;;;10.75;;
23230;SDS011;11784;49.818;8.632;2024-03-08T07:39:56;21.42;;;11.20;;
23230;SDS011;11784;49.818;8.632;2024-03-08T07:42:23;18.30;;;10.23;;
23230;SDS011;11784;49.818;8.632;2024-03-08T07:44:50;19.10;;;10.73;;
23230;SDS011;11784;49.818;8.632;2024-03-08T07:47:17;22.52;;;11.70;;
23230;SDS011;11784;49.818;8.632;2024-03-08T07:49:43;22.55;;;11.15;;
23230;SDS011;11784;49.818;8.632;2024-03-08T07:52:09;20.13;;;10.82;;
23230;SDS011;11784;49.818;8.632;2024-03-08T07:54:40;22.20;;;11.65;;
23230;SDS011;11784;49.818;8.632;2024-03-08T07:57:06;21.90;;;10.70;;
23230;SDS011;11784;49.818;8.632;2024-03-08T07:59:32;22.00;;;11.43;;
23230;SDS011;11784;49.818;8.632;2024-03-08T08:01:58;21.67;;;11.20;;
23230;SDS011;11784;49.818;8.632;2024-03-08T08:04:25;22.75;;;10.85;;
23230;SDS011;11784;49.818;8.632;2024-03-08T08:06:52;18.75;;;10.68;;
23230;SDS011;11784;49.818;8.632;2024-03-08T08:09:19;23.92;;;11.63;;
23230;SDS011;11784;49.818;8.632;2024-03-08T08:11:54;21.08;;;10.95;;
23230;SDS011;11784;49.818;8.632;2024-03-08T08:14:20;21.38;;;10.65;;
23230;SDS011;11784;49.818;8.632;2024-03-08T08:16:46;20.15;;;10.93;;
23230;SDS011;11784;49.818;8.632;2024-03-08T08:19:14;22.08;;;11.05;;
23230;SDS011;11784;49.818;8.632;2024-03-08T08:21:40;19.90;;;10.65;;
23230;SDS011;11784;49.818;8.632;2024-03-08T08:24:06;20.58;;;10.50;;
23230;SDS011;11784;49.818;8.632;2024-03-08T08:26:32;20.20;;;11.30;;
23230;SDS011;11784;49.818;8.632;2024-03-08T08:28:59;18.15;;;10.10;;
23230;SDS011;11784;49.818;8.632;2024-03-08T08:31:25;19.58;;;10.57;;
23230;SDS011;11784;49.818;8.632;2024-03-08T08:33:51;19.70;;;10.93;;
23230;SDS011;11784;49.818;8.632;2024-03-08T08:36:23;19.20;;;10.02;;
23230;SDS011;11784;49.818;8.632;2024-03-08T08:38:49;21.15;;;10.93;;
23230;SDS011;11784;49.818;8.632;2024-03-08T08:41:15;22.30;;;10.57;;
23230;SDS011;11784;49.818;8.632;2024-03-08T08:43:42;19.52;;;10.00;;
23230;SDS011;11784;49.818;8.632;2024-03-08T08:46:09;18.67;;;10.20;;
23230;SDS011;11784;49.818;8.632;2024-03-08T08:48:38;20.73;;;10.68;;
23230;SDS011;11784;49.818;8.632;2024-03-08T08:51:06;23.17;;;9.90;;
23230;SDS011;11784;49.818;8.632;2024-03-08T08:53:32;21.13;;;10.50;;
23230;SDS011;11784;49.818;8.632;2024-03-08T08:56:00;18.95;;;9.60;;
23230;SDS011;11784;49.818;8.632;2024-03-08T08:58:26;19.45;;;10.27;;
23230;SDS011;11784;49.818;8.632;2024-03-08T09:00:54;19.63;;;10.10;;
23230;SDS011;11784;49.818;8.632;2024-03-08T09:03:20;21.60;;;10.52;;
23230;SDS011;11784;49.818;8.632;2024-03-08T09:05:48;17.98;;;9.65;;
23230;SDS011;11784;49.818;8.632;2024-03-08T09:08:14;19.13;;;10.73;;
23230;SDS011;11784;49.818;8.632;2024-03-08T09:10:40;17.48;;;10.23;;
23230;SDS011;11784;49.818;8.632;2024-03-08T09:13:06;17.65;;;10.05;;
23230;SDS011;11784;49.818;8.632;2024-03-08T09:15:35;21.90;;;9.77;;
23230;SDS011;11784;49.818;8.632;2024-03-08T09:18:01;19.20;;;10.27;;
23230;SDS011;11784;49.818;8.632;2024-03-08T09:20:27;16.75;;;9.25;;
23230;SDS011;11784;49.818;8.632;2024-03-08T09:22:54;15.52;;;9.10;;
23230;SDS011;11784;49.818;8.632;2024-03-08T09:25:20;21.35;;;10.77;;
23230;SDS011;11784;49.818;8.632;2024-03-08T09:27:47;18.20;;;9.07;;
23230;SDS011;11784;49.818;8.632;2024-03-08T09:30:13;25.48;;;10.20;;
23230;SDS011;11784;49.818;8.632;2024-03-08T09:32:40;17.55;;;10.10;;
23230;SDS011;11784;49.818;8.632;2024-03-08T09:35:06;18.88;;;10.15;;
23230;SDS011;11784;49.818;8.632;2024-03-08T09:37:33;20.75;;;10.18;;
23230;SDS011;11784;49.818;8.632;2024-03-08T09:39:59;18.85;;;10.13;;
23230;SDS011;11784;49.818;8.632;2024-03-08T09:42:25;16.95;;;9.10;;
23230;SDS011;11784;49.818;8.632;2024-03-08T09:44:58;20.67;;;10.02;;
23230;SDS011;11784;49.818;8.632;2024-03-08T09:47:24;21.30;;;10.10;;
23230;SDS011;11784;49.818;8.632;2024-03-08T09:49:54;19.10;;;10.13;;
23230;SDS011;11784;49.818;8.632;2024-03-08T09:52:20;18.67;;;9.85;;
23230;SDS011;11784;49.818;8.632;2024-03-08T09:54:46;18.52;;;9.68;;
23230;SDS011;11784;49.818;8.632;2024-03-08T09:57:12;18.13;;;9.43;;
23230;SDS011;11784;49.818;8.632;2024-03-08T09:59:38;19.13;;;10.00;;
23230;SDS011;11784;49.818;8.632;2024-03-08T10:02:04;17.63;;;9.85;;
23230;SDS011;11784;49.818;8.632;2024-03-08T10:04:30;16.75;;;9.73;;
23230;SDS011;11784;49.818;8.632;2024-03-08T10:07:00;16.52;;;9.10;;
23230;SDS011;11784;49.818;8.632;2024-03-08T10:09:26;21.98;;;10.85;;
23230;SDS011;11784;49.818;8.632;2024-03-08T10:11:56;19.15;;;9.80;;
23230;SDS011;11784;49.818;8.632;2024-03-08T10:14:25;18.55;;;10.52;;
23230;SDS011;11784;49.818;8.632;2024-03-08T10:16:52;17.55;;;10.18;;
23230;SDS011;11784;49.818;8.632;2024-03-08T10:19:18;18.20;;;10.50;;
23230;SDS011;11784;49.818;8.632;2024-03-08T10:21:47;17.50;;;9.93;;
23230;SDS011;11784;49.818;8.632;2024-03-08T10:24:14;18.02;;;9.73;;
23230;SDS011;11784;49.818;8.632;2024-03-08T10:26:40;15.82;;;9.65;;
23230;SDS011;11784;49.818;8.632;2024-03-08T10:29:08;19.38;;;9.93;;
23230;SDS011;11784;49.818;8.632;2024-03-08T10:31:34;17.48;;;9.30;;
23230;SDS011;11784;49.818;8.632;2024-03-08T10:34:01;17.30;;;9.88;;
23230;SDS011;11784;49.818;8.632;2024-03-08T10:36:27;18.17;;;8.82;;
23230;SDS011;11784;49.818;8.632;2024-03-08T10:38:53;18.13;;;9.00;;
23230;SDS011;11784;49.818;8.632;2024-03-08T10:41:22;18.88;;;9.90;;
23230;SDS011;11784;49.818;8.632;2024-03-08T10:46:45;20.98;;;10.43;;
23230;SDS011;11784;49.818;8.632;2024-03-08T10:49:18;17.97;;;9.47;;
23230;SDS011;11784;49.818;8.632;2024-03-08T10:51:47;15.85;;;9.60;;
23230;SDS011;11784;49.818;8.632;2024-03-08T10:54:18;17.67;;;9.23;;
23230;SDS011;11784;49.818;8.632;2024-03-08T10:56:44;18.90;;;9.95;;
23230;SDS011;11784;49.818;8.632;2024-03-08T10:59:11;18.30;;;9.75;;
23230;SDS011;11784;49.818;8.632;2024-03-08T11:01:37;16.95;;;9.73;;
23230;SDS011;11784;49.818;8.632;2024-03-08T11:04:06;19.02;;;9.82;;
23230;SDS011;11784;49.818;8.632;2024-03-08T11:11:49;20.65;;;9.75;;
23230;SDS011;11784;49.818;8.632;2024-03-08T11:16:59;17.30;;;9.35;;
23230;SDS011;11784;49.818;8.632;2024-03-08T11:19:31;16.92;;;9.68;;
23230;SDS011;11784;49.818;8.632;2024-03-08T11:21:58;19.88;;;10.25;;
23230;SDS011;11784;49.818;8.632;2024-03-08T11:24:24;19.05;;;10.20;;
23230;SDS011;11784;49.818;8.632;2024-03-08T11:26:54;20.27;;;10.45;;
23230;SDS011;11784;49.818;8.632;2024-03-08T11:32:14;18.60;;;10.20;;
23230;SDS011;11784;49.818;8.632;2024-03-08T11:34:49;16.63;;;10.02;;
23230;SDS011;11784;49.818;8.632;2024-03-08T11:37:16;17.33;;;9.23;;
23230;SDS011;11784;49.818;8.632;2024-03-08T11:39:55;16.92;;;9.75;;
23230;SDS011;11784;49.818;8.632;2024-03-08T11:42:24;18.00;;;10.47;;
23230;SDS011;11784;49.818;8.632;2024-03-08T11:44:51;18.08;;;10.10;;
23230;SDS011;11784;49.818;8.632;2024-03-08T11:47:17;18.25;;;10.18;;
23230;SDS011;11784;49.818;8.632;2024-03-08T11:49:43;16.17;;;9.23;;
23230;SDS011;11784;49.818;8.632;2024-03-08T11:52:13;16.65;;;9.25;;
23230;SDS011;11784;49.818;8.632;2024-03-08T11:54:42;15.70;;;8.90;;
23230;SDS011;11784;49.818;8.632;2024-03-08T11:57:09;15.50;;;8.93;;
23230;SDS011;11784;49.818;8.632;2024-03-08T11:59:35;16.23;;;10.23;;
23230;SDS011;11784;49.818;8.632;2024-03-08T12:02:02;18.52;;;9.85;;
23230;SDS011;11784;49.818;8.632;2024-03-08T12:04:28;16.83;;;10.02;;
23230;SDS011;11784;49.818;8.632;2024-03-08T12:06:55;17.00;;;9.80;;
23230;SDS011;11784;49.818;8.632;2024-03-08T12:09:21;20.38;;;10.38;;
23230;SDS011;11784;49.818;8.632;2024-03-08T12:11:48;19.38;;;10.43;;
23230;SDS011;11784;49.818;8.632;2024-03-08T12:14:14;17.15;;;10.35;;
23230;SDS011;11784;49.818;8.632;2024-03-08T12:16:41;17.00;;;10.15;;
23230;SDS011;11784;49.818;8.632;2024-03-08T12:19:07;15.95;;;9.43;;
23230;SDS011;11784;49.818;8.632;2024-03-08T12:21:35;16.00;;;9.13;;
23230;SDS011;11784;49.818;8.632;2024-03-08T12:24:04;16.55;;;9.25;;
23230;SDS011;11784;49.818;8.632;2024-03-08T12:26:33;19.75;;;10.07;;
23230;SDS011;11784;49.818;8.632;2024-03-08T12:31:45;17.75;;;10.18;;
23230;SDS011;11784;49.818;8.632;2024-03-08T12:34:12;16.98;;;9.20;;
23230;SDS011;11784;49.818;8.632;2024-03-08T12:36:43;17.20;;;9.95;;
23230;SDS011;11784;49.818;8.632;2024-03-08T12:39:12;18.27;;;10.25;;
23230;SDS011;11784;49.818;8.632;2024-03-08T12:41:40;17.20;;;9.10;;
23230;SDS011;11784;49.818;8.632;2024-03-08T12:44:06;16.77;;;9.23;;
23230;SDS011;11784;49.818;8.632;2024-03-08T12:46:36;16.67;;;9.23;;
23230;SDS011;11784;49.818;8.632;2024-03-08T12:49:05;18.55;;;10.93;;
23230;SDS011;11784;49.818;8.632;2024-03-08T12:51:31;15.73;;;9.15;;
23230;SDS011;11784;49.818;8.632;2024-03-08T12:53:58;17.40;;;9.60;;
23230;SDS011;11784;49.818;8.632;2024-03-08T12:56:31;18.02;;;10.57;;
23230;SDS011;11784;49.818;8.632;2024-03-08T12:58:58;16.95;;;9.55;;
23230;SDS011;11784;49.818;8.632;2024-03-08T13:01:24;17.45;;;10.35;;
23230;SDS011;11784;49.818;8.632;2024-03-08T13:03:51;20.33;;;9.98;;
23230;SDS011;11784;49.818;8.632;2024-03-08T13:06:18;19.00;;;10.07;;
23230;SDS011;11784;49.818;8.632;2024-03-08T13:08:46;17.95;;;10.50;;
23230;SDS011;11784;49.818;8.632;2024-03-08T13:11:20;18.75;;;9.82;;
23230;SDS011;11784;49.818;8.632;2024-03-08T13:13:46;16.15;;;9.48;;
23230;SDS011;11784;49.818;8.632;2024-03-08T13:16:13;19.83;;;10.00;;
23230;SDS011;11784;49.818;8.632;2024-03-08T13:18:44;16.50;;;9.40;;
23230;SDS011;11784;49.818;8.632;2024-03-08T13:21:10;15.18;;;9.27;;
23230;SDS011;11784;49.818;8.632;2024-03-08T13:23:39;18.88;;;10.07;;
23230;SDS011;11784;49.818;8.632;2024-03-08T13:26:09;17.48;;;10.00;;
23230;SDS011;11784;49.818;8.632;2024-03-08T13:28:50;14.80;;;9.05;;
23230;SDS011;11784;49.818;8.632;2024-03-08T13:31:22;16.52;;;9.40;;
23230;SDS011;11784;49.818;8.632;2024-03-08T13:33:48;15.02;;;9.55;;
23230;SDS011;11784;49.818;8.632;2024-03-08T13:36:16;17.48;;;9.30;;
23230;SDS011;11784;49.818;8.632;2024-03-08T13:38:46;17.30;;;10.25;;
23230;SDS011;11784;49.818;8.632;2024-03-08T13:41:12;17.95;;;9.25;;
23230;SDS011;11784;49.818;8.632;2024-03-08T13:43:40;14.90;;;9.38;;
23230;SDS011;11784;49.818;8.632;2024-03-08T13:46:06;17.08;;;9.10;;
23230;SDS011;11784;49.818;8.632;2024-03-08T13:48:33;15.77;;;8.75;;
23230;SDS011;11784;49.818;8.632;2024-03-08T13:50:59;17.17;;;9.30;;
23230;SDS011;11784;49.818;8.632;2024-03-08T13:53:25;17.45;;;10.52;;
23230;SDS011;11784;49.818;8.632;2024-03-08T13:55:51;15.32;;;9.43;;
23230;SDS011;11784;49.818;8.632;2024-03-08T13:58:17;16.10;;;9.40;;
23230;SDS011;11784;49.818;8.632;2024-03-08T14:00:45;15.65;;;8.95;;
23230;SDS011;11784;49.818;8.632;2024-03-08T14:03:12;19.20;;;9.13;;
23230;SDS011;11784;49.818;8.632;2024-03-08T14:05:39;19.50;;;8.88;;
23230;SDS011;11784;49.818;8.632;2024-03-08T14:08:06;15.40;;;9.82;;
23230;SDS011;11784;49.818;8.632;2024-03-08T14:10:33;15.90;;;9.80;;
23230;SDS011;11784;49.818;8.632;2024-03-08T14:12:59;17.17;;;9.50;;
23230;SDS011;11784;49.818;8.632;2024-03-08T14:15:25;15.10;;;9.25;;
23230;SDS011;11784;49.818;8.632;2024-03-08T14:17:52;15.60;;;9.85;;
23230;SDS011;11784;49.818;8.632;2024-03-08T14:20:18;17.55;;;8.90;;
23230;SDS011;11784;49.818;8.632;2024-03-08T14:22:44;15.30;;;9.48;;
23230;SDS011;11784;49.818;8.632;2024-03-08T14:25:11;14.73;;;9.27;;
23230;SDS011;11784;49.818;8.632;2024-03-08T14:27:42;15.52;;;9.27;;
23230;SDS011;11784;49.818;8.632;2024-03-08T14:30:09;17.42;;;9.13;;
23230;SDS011;11784;49.818;8.632;2024-03-08T14:32:35;13.65;;;7.45;;
23230;SDS011;11784;49.818;8.632;2024-03-08T14:35:03;15.30;;;8.98;;
23230;SDS011;11784;49.818;8.632;2024-03-08T14:37:29;13.10;;;8.25;;
23230;SDS011;11784;49.818;8.632;2024-03-08T14:39:55;15.40;;;8.65;;
23230;SDS011;11784;49.818;8.632;2024-03-08T14:42:22;13.20;;;8.50;;
23230;SDS011;11784;49.818;8.632;2024-03-08T14:44:48;14.98;;;8.93;;
23230;SDS011;11784;49.818;8.632;2024-03-08T14:47:16;14.55;;;8.48;;